Time;durP1;ratioP1;P1;durP2;ratioP2;P2;SDS_P1;SDS_P2;PMS_P1;PMS_P2;Temp;Humidity;BMP_temperature;BMP_pressure;BME280_temperature;BME280_humidity;BME280_pressure;Samples;Min_cycle;Max_cycle;Signal;HPM_P1;HPM_P2
2024/01/23 00:01:13;;;;;;;;;23.33;22.33;;;;;-143.90;100.00;76330.13;4831418;28;102814;-70
2024/01/23 00:03:40;;;;;;;;;31.67;27.33;;;;;-143.90;100.00;76330.13;4828107;28;102207;-70
2024/01/23 00:06:07;;;;;;;;;39.33;26.33;;;;;-143.90;100.00;76340.47;4812329;28;102365;-69
2024/01/23 00:08:34;;;;;;;;;26.67;23.00;;;;;-143.90;100.00;76338.41;4806237;28;104363;-70
2024/01/23 00:11:02;;;;;;;;;36.33;26.67;;;;;-143.90;100.00;76346.69;4828080;28;102590;-71
2024/01/23 00:13:29;;;;;;;;;31.00;27.33;;;;;-143.90;100.00;76359.09;4829505;28;101885;-70
2024/01/23 00:15:55;;;;;;;;;33.33;25.67;;;;;-143.90;100.00;76359.09;4830384;28;102286;-69
2024/01/23 00:18:22;;;;;;;;;33.67;29.33;;;;;-143.90;100.00;76359.09;4830194;28;104108;-70
2024/01/23 00:20:50;;;;;;;;;31.33;29.67;;;;;-143.90;100.00;76371.50;4820563;28;102635;-68
2024/01/23 00:23:16;;;;;;;;;27.00;21.33;;;;;-143.90;100.00;76371.50;4829979;28;102354;-70
2024/01/23 00:25:43;;;;;;;;;29.00;26.00;;;;;-143.90;100.00;76375.63;4833960;28;102498;-70
2024/01/23 00:28:10;;;;;;;;;34.33;30.00;;;;;-143.90;100.00;76367.34;4828585;28;104190;-70
2024/01/23 00:30:38;;;;;;;;;29.67;27.33;;;;;-143.90;100.00;76350.81;4816271;28;102707;-70
2024/01/23 00:33:05;;;;;;;;;33.00;23.67;;;;;-143.90;100.00;76359.09;4826612;28;105159;-70
2024/01/23 00:35:32;;;;;;;;;33.00;22.67;;;;;-143.90;100.00;76363.22;4830521;28;102538;-70
2024/01/23 00:37:58;;;;;;;;;40.67;33.67;;;;;-143.90;100.00;76354.94;4826764;28;104128;-70
2024/01/23 00:40:25;;;;;;;;;28.33;20.33;;;;;-143.90;100.00;76346.69;4822840;28;102013;-70
2024/01/23 00:42:51;;;;;;;;;35.33;28.00;;;;;-143.90;100.00;76350.81;4823075;28;103637;-70
2024/01/23 00:45:18;;;;;;;;;21.75;18.75;;;;;-143.90;100.00;76354.94;4828632;28;102098;-70
2024/01/23 00:47:45;;;;;;;;;28.33;25.33;;;;;-143.90;100.00;76367.34;4829547;28;104300;-70
2024/01/23 00:50:11;;;;;;;;;29.67;27.00;;;;;-143.90;100.00;76371.50;4827139;28;102930;-71
2024/01/23 00:52:38;;;;;;;;;34.00;26.67;;;;;-143.90;100.00;76375.63;4816142;28;102276;-69
2024/01/23 00:55:05;;;;;;;;;24.33;21.33;;;;;-143.90;100.00;76375.63;4831030;28;102061;-69
2024/01/23 00:57:32;;;;;;;;;32.33;27.33;;;;;-143.90;100.00;76377.69;4826305;28;107481;-69
2024/01/23 01:00:00;;;;;;;;;28.67;25.33;;;;;-143.90;100.00;76379.75;4823886;28;102037;-69
2024/01/23 01:02:28;;;;;;;;;33.00;26.33;;;;;-143.90;100.00;76388.03;4819639;28;102560;-69
2024/01/23 01:04:54;;;;;;;;;29.67;25.67;;;;;-143.90;100.00;76388.03;4824653;28;102492;-68
2024/01/23 01:07:21;;;;;;;;;22.33;17.33;;;;;-143.90;100.00;76392.16;4827480;28;104087;-70
2024/01/23 01:09:48;;;;;;;;;31.00;22.33;;;;;-143.90;100.00;76394.25;4825697;28;102442;-70
2024/01/23 01:12:14;;;;;;;;;24.33;20.00;;;;;-143.90;100.00;76394.25;4830276;28;102011;-70
2024/01/23 01:14:41;;;;;;;;;34.67;28.33;;;;;-143.90;100.00;76400.44;4818615;28;102371;-70
2024/01/23 01:17:08;;;;;;;;;26.33;24.67;;;;;-143.90;100.00;76392.16;4826501;28;104103;-70
2024/01/23 01:19:35;;;;;;;;;28.33;24.00;;;;;-143.90;100.00;76392.16;4827362;28;101893;-68
2024/01/23 01:22:02;;;;;;;;;30.33;21.33;;;;;-143.90;100.00;76379.75;4828869;28;102656;-70
2024/01/23 01:24:29;;;;;;;;;26.00;22.33;;;;;-143.90;100.00;76379.75;4822052;28;102086;-70
2024/01/23 01:26:56;;;;;;;;;20.67;19.33;;;;;-143.90;100.00;76392.16;4829270;28;104356;-69
2024/01/23 01:29:23;;;;;;;;;26.00;23.00;;;;;-143.90;100.00;76388.03;4832788;28;102258;-69
2024/01/23 01:31:49;;;;;;;;;29.00;22.33;;;;;-143.90;100.00;76392.16;4812892;28;102182;-69
2024/01/23 01:34:16;;;;;;;;;30.33;26.33;;;;;-143.90;100.00;76396.31;4831837;28;104599;-69
2024/01/23 01:36:43;;;;;;;;;28.67;25.67;;;;;-143.90;100.00;76406.66;4822230;28;109257;-68
2024/01/23 01:39:12;;;;;;;;;27.67;23.33;;;;;-143.90;100.00;76412.84;4829434;28;102423;-69
2024/01/23 01:41:38;;;;;;;;;28.33;22.33;;;;;-143.90;100.00;76410.78;4827003;28;102576;-69
2024/01/23 01:44:05;;;;;;;;;27.33;22.67;;;;;-143.90;100.00;76400.44;4829164;28;102814;-70
2024/01/23 01:46:32;;;;;;;;;29.00;25.33;;;;;-143.90;100.00;76396.31;4819414;28;105365;-70
2024/01/23 01:48:58;;;;;;;;;28.67;25.33;;;;;-143.90;100.00;76398.38;4824371;28;104368;-70
2024/01/23 01:51:28;;;;;;;;;35.67;29.00;;;;;-143.90;100.00;76402.50;4830618;28;105266;-69
2024/01/23 01:53:56;;;;;;;;;28.00;24.00;;;;;-143.90;100.00;76400.44;4829393;28;102316;-70
2024/01/23 01:56:23;;;;;;;;;25.00;25.00;;;;;-143.90;100.00;76392.16;4829239;28;103821;-70
2024/01/23 01:58:51;;;;;;;;;30.33;25.00;;;;;-143.90;100.00;76396.31;4819809;28;102476;-69
2024/01/23 02:01:19;;;;;;;;;29.33;25.33;;;;;-143.90;100.00;76400.44;4825205;28;101934;-69
2024/01/23 02:03:45;;;;;;;;;25.33;21.67;;;;;-143.90;100.00;76394.25;4803495;28;102639;-69
2024/01/23 02:06:12;;;;;;;;;29.67;25.00;;;;;-143.90;100.00;76390.09;4822237;28;108941;-70
2024/01/23 02:08:40;;;;;;;;;36.33;26.00;;;;;-143.90;100.00;76396.31;4820464;28;104491;-69
2024/01/23 02:11:06;;;;;;;;;33.00;27.00;;;;;-143.90;100.00;76400.44;4828811;28;103013;-70
2024/01/23 02:13:33;;;;;;;;;30.00;27.33;;;;;-143.90;100.00;76392.16;4827347;28;102076;-69
2024/01/23 02:16:00;;;;;;;;;28.00;24.00;;;;;-143.90;100.00;76400.44;4815049;28;103979;-70
2024/01/23 02:18:26;;;;;;;;;30.00;25.33;;;;;-143.90;100.00;76390.09;4796826;28;102239;-68
2024/01/23 02:20:53;;;;;;;;;24.00;21.67;;;;;-143.90;100.00;76388.03;4818843;28;102725;-70
2024/01/23 02:23:20;;;;;;;;;36.67;28.00;;;;;-143.90;100.00;76394.25;4812806;28;102865;-70
2024/01/23 02:25:46;;;;;;;;;30.67;24.67;;;;;-143.90;100.00;76392.16;4830060;28;104379;-69
2024/01/23 02:28:15;;;;;;;;;29.33;24.00;;;;;-143.90;100.00;76390.09;4831539;28;101926;-70
2024/01/23 02:30:42;;;;;;;;;32.67;28.00;;;;;-143.90;100.00;76392.16;4807980;28;102461;-70
2024/01/23 02:33:09;;;;;;;;;34.33;27.00;;;;;-143.90;100.00;76392.16;4830739;28;102386;-69
2024/01/23 02:35:37;;;;;;;;;30.00;26.00;;;;;-143.90;100.00;76400.44;4825458;28;105140;-71
2024/01/23 02:38:04;;;;;;;;;31.00;27.67;;;;;-143.90;100.00;76390.09;4826278;28;102463;-70
2024/01/23 02:40:31;;;;;;;;;35.67;29.00;;;;;-143.90;100.00;76396.31;4821994;28;102329;-70
2024/01/23 02:42:58;;;;;;;;;26.67;22.67;;;;;-143.90;100.00;76398.38;4829704;28;102478;-71
2024/01/23 02:45:24;;;;;;;;;30.00;27.33;;;;;-143.90;100.00;76412.84;4825336;28;104100;-70
2024/01/23 02:47:51;;;;;;;;;35.00;30.00;;;;;-143.90;100.00;76417.00;4822004;28;103007;-70
2024/01/23 02:50:18;;;;;;;;;31.67;25.00;;;;;-143.90;100.00;76396.31;4825474;28;101939;-70
2024/01/23 02:52:44;;;;;;;;;33.33;25.00;;;;;-143.90;100.00;76400.44;4821451;28;102900;-71
2024/01/23 02:55:11;;;;;;;;;36.00;29.33;;;;;-143.90;100.00;76408.72;4829621;28;103928;-71
2024/01/23 02:57:38;;;;;;;;;34.33;27.00;;;;;-143.90;100.00;76417.00;4831638;28;102351;-71
2024/01/23 03:00:05;;;;;;;;;26.67;24.33;;;;;-143.90;100.00;76433.53;4828845;28;102186;-71
2024/01/23 03:02:32;;;;;;;;;29.00;25.33;;;;;-143.90;100.00;76433.53;4820172;28;102262;-71
2024/01/23 03:04:58;;;;;;;;;37.33;34.33;;;;;-143.90;100.00;76441.81;4827569;28;104171;-70
2024/01/23 03:07:25;;;;;;;;;29.67;27.33;;;;;-143.90;100.00;76431.47;4827413;28;102624;-72
2024/01/23 03:09:52;;;;;;;;;32.67;29.33;;;;;-143.90;100.00;76441.81;4827693;28;101791;-71
2024/01/23 03:12:21;;;;;;;;;34.00;29.00;;;;;-143.90;100.00;76445.94;4832458;28;102376;-71
2024/01/23 03:14:49;;;;;;;;;37.00;31.00;;;;;-143.90;100.00;76443.88;4816242;28;103837;-71
2024/01/23 03:17:17;;;;;;;;;28.00;26.00;;;;;-143.90;100.00;76450.06;4831974;28;102531;-71
2024/01/23 03:19:44;;;;;;;;;55.33;38.33;;;;;-143.90;100.00;76479.03;4827060;28;102157;-71
2024/01/23 03:22:11;;;;;;;;;32.33;29.00;;;;;-143.90;100.00;76474.91;4830087;28;102501;-71
2024/01/23 03:24:39;;;;;;;;;40.67;34.00;;;;;-143.90;100.00;76476.97;4818514;28;104067;-72
2024/01/23 03:27:06;;;;;;;;;34.67;28.00;;;;;-143.90;100.00;76474.91;4831954;28;102624;-70
2024/01/23 03:29:40;;;;;;;;;35.67;30.00;;;;;-143.90;100.00;76466.63;4829981;28;102429;-71
2024/01/23 03:32:07;;;;;;;;;37.33;31.00;;;;;-143.90;100.00;76472.81;4831651;28;102392;-70
2024/01/23 03:34:35;;;;;;;;;44.67;35.00;;;;;-143.90;100.00;76483.16;4819093;28;104242;-70
2024/01/23 03:37:02;;;;;;;;;40.33;35.00;;;;;-143.90;100.00;76489.38;4827633;28;104541;-70
2024/01/23 03:39:29;;;;;;;;;44.00;31.33;;;;;-143.90;100.00;76483.16;4827583;28;102305;-70
2024/01/23 03:41:56;;;;;;;;;40.67;34.33;;;;;-143.90;100.00;76483.16;4829091;28;102354;-71
2024/01/23 03:44:24;;;;;;;;;39.33;29.67;;;;;-143.90;100.00;76485.22;4813774;28;104010;-70
2024/01/23 03:46:52;;;;;;;;;43.67;32.67;;;;;-143.90;100.00;76491.44;4802849;29;102736;-71
2024/01/23 03:49:19;;;;;;;;;33.33;26.33;;;;;-143.90;100.00;76489.38;4835229;28;102199;-71
2024/01/23 03:51:46;;;;;;;;;33.67;30.33;;;;;-143.90;100.00;76505.91;4828130;28;102440;-71
2024/01/23 03:54:13;;;;;;;;;49.67;38.33;;;;;-143.90;100.00;76510.06;4827325;28;108852;-70
2024/01/23 03:56:40;;;;;;;;;37.00;32.33;;;;;-143.90;100.00;76507.97;4789382;29;102649;-71
2024/01/23 03:59:06;;;;;;;;;33.67;24.67;;;;;-143.90;100.00;76489.38;4826558;28;102824;-70
2024/01/23 04:01:34;;;;;;;;;28.00;24.00;;;;;-143.90;100.00;76487.31;4827910;28;103262;-71
2024/01/23 04:04:01;;;;;;;;;31.33;21.00;;;;;-143.90;100.00;76495.56;4828133;28;103133;-70
2024/01/23 04:06:28;;;;;;;;;35.67;29.00;;;;;-143.90;100.00;76501.78;4821821;28;102355;-70
2024/01/23 04:08:55;;;;;;;;;50.33;35.00;;;;;-143.90;100.00;76512.13;4823601;28;102177;-70
2024/01/23 04:11:22;;;;;;;;;48.33;39.00;;;;;-143.90;100.00;76516.25;4830141;28;102369;-70
2024/01/23 04:13:48;;;;;;;;;39.67;32.00;;;;;-143.90;100.00;76501.78;4824255;28;104208;-71
2024/01/23 04:16:15;;;;;;;;;29.67;25.33;;;;;-143.90;100.00;76512.13;4833691;28;102414;-70
2024/01/23 04:18:42;;;;;;;;;39.33;31.67;;;;;-143.90;100.00;76510.06;4816520;28;102394;-70
2024/01/23 04:21:09;;;;;;;;;28.67;24.00;;;;;-143.90;100.00;76497.63;4828615;28;102724;-71
2024/01/23 04:23:36;;;;;;;;;30.33;25.67;;;;;-143.90;100.00;76503.84;4823650;28;104233;-70
2024/01/23 04:26:06;;;;;;;;;27.00;23.67;;;;;-143.90;100.00;76505.91;4831550;28;102737;-71
2024/01/23 04:28:34;;;;;;;;;31.00;25.33;;;;;-143.90;100.00;76518.31;4815386;28;102283;-71
2024/01/23 04:31:01;;;;;;;;;43.67;37.67;;;;;-143.90;100.00;76518.31;4829525;28;102501;-70
2024/01/23 04:33:29;;;;;;;;;40.00;30.00;;;;;-143.90;100.00;76516.25;4829876;28;104119;-70
2024/01/23 04:35:56;;;;;;;;;39.00;34.00;;;;;-143.90;100.00;76516.25;4827079;28;101955;-70
2024/01/23 04:38:23;;;;;;;;;41.00;34.67;;;;;-143.90;100.00;76514.19;4826873;28;101981;-70
2024/01/23 04:40:50;;;;;;;;;40.33;30.33;;;;;-143.90;100.00;76524.53;4819315;28;104434;-70
2024/01/23 04:43:17;;;;;;;;;33.33;28.67;;;;;-143.90;100.00;76528.66;4826196;28;104818;-70
2024/01/23 04:45:45;;;;;;;;;39.33;32.00;;;;;-143.90;100.00;76526.59;4828167;28;102383;-70
2024/01/23 04:48:11;;;;;;;;;36.67;27.33;;;;;-143.90;100.00;76520.38;4825093;28;102215;-70
2024/01/23 04:50:38;;;;;;;;;41.00;32.67;;;;;-143.90;100.00;76524.53;4816613;28;102408;-70
2024/01/23 04:53:05;;;;;;;;;64.33;44.33;;;;;-143.90;100.00;76528.66;4810272;29;104152;-70
2024/01/23 04:55:32;;;;;;;;;70.33;51.33;;;;;-143.90;100.00;76520.38;4828100;28;102576;-70
2024/01/23 04:57:58;;;;;;;;;61.33;45.00;;;;;-143.90;100.00;76528.66;4826989;28;102445;-71
2024/01/23 05:00:25;;;;;;;;;51.00;39.00;;;;;-143.90;100.00;76536.94;4798778;28;101946;-71
2024/01/23 05:02:52;;;;;;;;;50.00;39.33;;;;;-143.90;100.00;76536.94;4820650;28;103924;-70
2024/01/23 05:05:19;;;;;;;;;50.67;40.67;;;;;-143.90;100.00;76549.34;4827228;28;102653;-71
2024/01/23 05:07:45;;;;;;;;;38.67;34.67;;;;;-143.90;100.00;76541.06;4830496;28;103421;-70
2024/01/23 05:10:12;;;;;;;;;38.67;32.00;;;;;-143.90;100.00;76545.22;4828758;28;102604;-69
2024/01/23 05:12:39;;;;;;;;;37.00;31.00;;;;;-143.90;100.00;76539.00;4817800;28;104149;-70
2024/01/23 05:15:07;;;;;;;;;39.00;36.33;;;;;-143.90;100.00;76553.47;4811943;28;102172;-70
2024/01/23 05:17:34;;;;;;;;;50.67;40.33;;;;;-143.90;100.00;76545.22;4820129;28;102307;-71
2024/01/23 05:20:04;;;;;;;;;31.00;24.67;;;;;-143.90;100.00;76551.41;4828609;28;102076;-71
2024/01/23 05:22:31;;;;;;;;;51.67;41.67;;;;;-143.90;100.00;76545.22;4821768;28;104326;-71
2024/01/23 05:24:57;;;;;;;;;46.67;36.67;;;;;-143.90;100.00;76539.00;4826485;28;104640;-70
2024/01/23 05:27:24;;;;;;;;;61.67;44.33;;;;;-143.90;100.00;76553.47;4826544;28;102354;-71
2024/01/23 05:29:51;;;;;;;;;49.67;40.33;;;;;-143.90;100.00;76551.41;4829298;28;104979;-70
2024/01/23 05:32:20;;;;;;;;;43.67;35.67;;;;;-143.90;100.00;76549.34;4823662;28;104147;-72
2024/01/23 05:34:46;;;;;;;;;61.00;48.00;;;;;-143.90;100.00;76563.81;4801444;29;103045;-71
2024/01/23 05:37:13;;;;;;;;;54.33;43.00;;;;;-143.90;100.00;76563.81;4827449;28;103847;-71
2024/01/23 05:39:40;;;;;;;;;57.00;41.00;;;;;-143.90;100.00;76565.88;4827231;28;102978;-72
2024/01/23 05:42:07;;;;;;;;;64.00;44.33;;;;;-143.90;100.00;76572.09;4809623;28;103971;-71
2024/01/23 05:44:34;;;;;;;;;61.00;46.67;;;;;-143.90;100.00;76574.16;4807401;28;102824;-71
2024/01/23 05:47:01;;;;;;;;;51.33;43.00;;;;;-143.90;100.00;76570.03;4827488;28;102139;-69
2024/01/23 05:49:27;;;;;;;;;47.33;41.33;;;;;-143.90;100.00;76576.22;4825491;28;102550;-69
2024/01/23 05:51:54;;;;;;;;;54.00;39.67;;;;;-143.90;100.00;76582.44;4821694;28;104352;-70
2024/01/23 05:54:21;;;;;;;;;42.67;31.67;;;;;-143.90;100.00;76584.50;4826679;28;104531;-70
2024/01/23 05:56:47;;;;;;;;;60.00;44.67;;;;;-143.90;100.00;76586.56;4816998;28;102162;-72
2024/01/23 05:59:15;;;;;;;;;43.33;39.00;;;;;-143.90;100.00;76586.56;4825153;28;102193;-72
2024/01/23 06:01:42;;;;;;;;;55.00;44.33;;;;;-143.90;100.00;76603.13;4824701;28;104009;-71
2024/01/23 06:04:09;;;;;;;;;46.67;41.33;;;;;-143.90;100.00;76598.97;4827320;28;102090;-69
2024/01/23 06:06:41;;;;;;;;;47.00;34.33;;;;;-143.90;100.00;76590.72;4816711;28;102236;-70
2024/01/23 06:09:09;;;;;;;;;48.00;41.33;;;;;-143.90;100.00;76592.78;4828482;28;102869;-70
2024/01/23 06:11:39;;;;;;;;;71.00;55.00;;;;;-143.90;100.00;76601.03;4832374;28;103938;-69
2024/01/23 06:14:07;;;;;;;;;55.67;43.00;;;;;-143.90;100.00;76594.84;4829749;28;102383;-70
2024/01/23 06:16:33;;;;;;;;;48.67;42.67;;;;;-143.90;100.00;76588.63;4820938;28;103646;-70
2024/01/23 06:19:00;;;;;;;;;52.00;43.33;;;;;-143.90;100.00;76590.72;4819837;28;102147;-71
2024/01/23 06:21:27;;;;;;;;;51.67;41.33;;;;;-143.90;100.00;76588.63;4830331;28;104659;-71
2024/01/23 06:23:54;;;;;;;;;61.67;49.00;;;;;-143.90;100.00;76594.84;4828351;28;102889;-71
2024/01/23 06:26:20;;;;;;;;;61.67;43.67;;;;;-143.90;100.00;76586.56;4833269;28;102830;-72
2024/01/23 06:28:47;;;;;;;;;70.67;52.00;;;;;-143.90;100.00;76584.50;4823820;28;103218;-71
2024/01/23 06:31:14;;;;;;;;;65.00;47.00;;;;;-143.90;100.00;76590.72;4831286;28;109060;-70
2024/01/23 06:33:40;;;;;;;;;45.67;36.67;;;;;-143.90;100.00;76596.91;4830889;28;102524;-70
2024/01/23 06:36:07;;;;;;;;;48.00;38.33;;;;;-143.90;100.00;76596.91;4827289;28;102402;-71
2024/01/23 06:38:34;;;;;;;;;60.33;46.67;;;;;-143.90;100.00;76592.78;4823352;28;102369;-71
2024/01/23 06:41:01;;;;;;;;;56.00;43.33;;;;;-143.90;100.00;76592.78;4828523;28;104318;-71
2024/01/23 06:43:27;;;;;;;;;56.67;42.67;;;;;-143.90;100.00;76590.72;4830544;28;106212;-71
2024/01/23 06:45:56;;;;;;;;;54.33;45.00;;;;;-143.90;100.00;76586.56;4832511;28;102213;-70
2024/01/23 06:48:22;;;;;;;;;62.00;48.67;;;;;-143.90;100.00;76594.84;4833461;28;102645;-71
2024/01/23 06:50:50;;;;;;;;;49.67;43.33;;;;;-143.90;100.00;76590.72;4809997;28;103955;-72
2024/01/23 06:53:17;;;;;;;;;53.00;40.33;;;;;-143.90;100.00;76590.72;4827755;28;102608;-70
2024/01/23 06:55:44;;;;;;;;;38.33;33.67;;;;;-143.90;100.00;76590.72;4830565;28;102328;-71
2024/01/23 06:58:11;;;;;;;;;31.00;25.33;;;;;-143.90;100.00;76596.91;4831803;28;105183;-70
2024/01/23 07:00:37;;;;;;;;;36.33;31.67;;;;;-143.90;100.00;76596.91;4822390;28;104023;-71
2024/01/23 07:03:06;;;;;;;;;38.33;33.00;;;;;-143.90;100.00;76598.97;4832907;28;102164;-72
2024/01/23 07:05:33;;;;;;;;;34.67;28.00;;;;;-143.90;100.00;76588.63;4826909;28;104366;-70
2024/01/23 07:07:59;;;;;;;;;36.67;31.33;;;;;-143.90;100.00;76590.72;4816364;28;103644;-71
2024/01/23 07:10:26;;;;;;;;;40.00;35.00;;;;;-143.90;100.00;76598.97;4826649;28;104084;-69
2024/01/23 07:12:53;;;;;;;;;42.33;34.33;;;;;-143.90;100.00;76586.56;4827065;28;102866;-71
2024/01/23 07:15:20;;;;;;;;;27.67;23.67;;;;;-143.90;100.00;76576.22;4811275;29;102472;-72
2024/01/23 07:17:47;;;;;;;;;29.00;26.33;;;;;-143.90;100.00;76570.03;4834318;28;101870;-71
2024/01/23 07:20:14;;;;;;;;;36.00;27.33;;;;;-143.90;100.00;76582.44;4827822;28;104153;-71
2024/01/23 07:22:40;;;;;;;;;25.33;25.33;;;;;-143.90;100.00;76594.84;4820529;28;102993;-71
2024/01/23 07:25:07;;;;;;;;;45.00;39.00;;;;;-143.90;100.00;76598.97;4825442;28;102654;-72
2024/01/23 07:27:38;;;;;;;;;45.67;38.33;;;;;-143.90;100.00;76592.78;4831085;28;102414;-72
2024/01/23 07:30:05;;;;;;;;;36.67;29.33;;;;;-143.90;100.00;76592.78;4826728;28;104188;-71
2024/01/23 07:32:32;;;;;;;;;36.67;32.00;;;;;-143.90;100.00;76598.97;4818081;28;102190;-73
2024/01/23 07:34:58;;;;;;;;;50.00;38.67;;;;;-143.90;100.00;76594.84;4828543;28;102419;-71
2024/01/23 07:37:25;;;;;;;;;43.00;35.00;;;;;-143.90;100.00;76605.19;4835490;28;102300;-71
2024/01/23 07:39:51;;;;;;;;;34.33;30.67;;;;;-143.90;100.00;76603.13;4828323;28;104084;-71
2024/01/23 07:42:18;;;;;;;;;47.67;40.00;;;;;-143.90;100.00;76621.72;4832225;28;102549;-71
2024/01/23 07:44:46;;;;;;;;;53.00;43.00;;;;;-143.90;100.00;76634.13;4807684;28;105419;-70
2024/01/23 07:47:13;;;;;;;;;47.33;39.67;;;;;-143.90;100.00;76613.47;4828533;28;102487;-70
2024/01/23 07:49:40;;;;;;;;;50.33;42.33;;;;;-143.90;100.00;76632.06;4829461;28;104175;-70
2024/01/23 07:52:09;;;;;;;;;43.00;38.00;;;;;-143.90;100.00;76617.59;4827987;28;103022;-70
2024/01/23 07:54:36;;;;;;;;;52.33;39.67;;;;;-143.90;100.00;76609.31;4817758;28;102803;-71
2024/01/23 07:57:03;;;;;;;;;40.33;32.00;;;;;-143.90;100.00;76590.72;4829089;28;102601;-71
2024/01/23 07:59:30;;;;;;;;;50.33;41.67;;;;;-143.90;100.00;76594.84;4829355;28;104178;-71
2024/01/23 08:01:57;;;;;;;;;55.00;44.00;;;;;-143.90;100.00;76578.31;4832691;28;102616;-69
2024/01/23 08:04:23;;;;;;;;;45.33;39.00;;;;;-143.90;100.00;76565.88;4833158;28;102670;-71
2024/01/23 08:06:52;;;;;;;;;47.67;40.00;;;;;-143.90;100.00;76578.31;4826120;28;105537;-71
2024/01/23 08:09:19;;;;;;;;;44.33;38.67;;;;;-143.90;100.00;76574.16;4829424;28;103811;-71
2024/01/23 08:11:46;;;;;;;;;37.33;34.33;;;;;-143.90;100.00;76565.88;4831695;28;102276;-69
2024/01/23 08:14:13;;;;;;;;;39.67;34.67;;;;;-143.90;100.00;76565.88;4828830;28;101927;-69
2024/01/23 08:16:43;;;;;;;;;40.33;33.00;;;;;-143.90;100.00;76555.53;4821429;28;104194;-70
2024/01/23 08:19:10;;;;;;;;;50.67;39.67;;;;;-143.90;100.00;76592.78;4830206;28;104021;-70
2024/01/23 08:21:37;;;;;;;;;44.33;35.00;;;;;-143.90;100.00;76586.56;4831113;28;102499;-69
2024/01/23 08:24:05;;;;;;;;;46.33;34.00;;;;;-143.90;100.00;76578.31;4826257;28;102445;-71
2024/01/23 08:26:31;;;;;;;;;35.33;29.00;;;;;-143.90;100.00;76570.03;4825707;28;104562;-71
2024/01/23 08:28:59;;;;;;;;;55.00;42.00;;;;;-143.90;100.00;76582.44;4829163;28;104271;-70
2024/01/23 08:31:26;;;;;;;;;48.67;32.67;;;;;-143.90;100.00;76570.03;4827675;28;102638;-71
2024/01/23 08:33:53;;;;;;;;;43.33;35.33;;;;;-143.90;100.00;76565.88;4828658;28;102571;-71
2024/01/23 08:36:20;;;;;;;;;35.67;30.33;;;;;-143.90;100.00;76567.97;4832925;28;102313;-71
2024/01/23 08:38:47;;;;;;;;;50.67;41.00;;;;;-143.90;100.00;76567.97;4818928;28;104192;-71
2024/01/23 08:41:14;;;;;;;;;36.00;30.00;;;;;-143.90;100.00;76555.53;4814996;28;102625;-71
2024/01/23 08:43:40;;;;;;;;;39.33;33.67;;;;;-143.90;100.00;76549.34;4828359;28;102527;-71
2024/01/23 08:46:07;;;;;;;;;44.00;33.67;;;;;-143.90;100.00;76536.94;4831658;28;103073;-70
2024/01/23 08:48:34;;;;;;;;;45.33;36.67;;;;;-143.90;100.00;76532.78;4816192;28;104309;-69
2024/01/23 08:51:01;;;;;;;;;30.33;26.33;;;;;-143.90;100.00;76518.31;4827310;28;102458;-69
2024/01/23 08:53:28;;;;;;;;;49.00;39.00;;;;;-143.90;100.00;76524.53;4827052;28;102062;-69
2024/01/23 08:55:54;;;;;;;;;38.00;29.33;;;;;-143.90;100.00;76507.97;4826431;28;102419;-70
2024/01/23 08:58:21;;;;;;;;;44.33;36.33;;;;;-143.90;100.00;76505.91;4829716;28;103653;-69
2024/01/23 09:00:48;;;;;;;;;38.67;33.33;;;;;-143.90;100.00;76507.97;4821802;28;102153;-70
2024/01/23 09:03:15;;;;;;;;;42.00;35.67;;;;;-143.90;100.00;76514.19;4803239;29;102734;-69
2024/01/23 09:05:41;;;;;;;;;45.67;32.67;;;;;-143.90;100.00;76495.56;4830776;28;102455;-70
2024/01/23 09:08:11;;;;;;;;;46.67;38.33;;;;;-143.90;100.00;76524.53;4830677;28;104172;-69
2024/01/23 09:10:38;;;;;;;;;43.00;33.33;;;;;-143.90;100.00;76491.44;4813756;28;102386;-69
2024/01/23 09:13:05;;;;;;;;;45.00;35.33;;;;;-143.90;100.00;76493.50;4828732;28;104623;-70
2024/01/23 09:15:32;;;;;;;;;49.00;38.33;;;;;-143.90;100.00;76483.16;4827290;28;104874;-70
2024/01/23 09:18:00;;;;;;;;;52.33;37.00;;;;;-143.90;100.00;76491.44;4828490;28;104217;-70
2024/01/23 09:20:27;;;;;;;;;48.67;38.00;;;;;-143.90;100.00;76483.16;4823711;28;102309;-70
2024/01/23 09:22:53;;;;;;;;;42.00;32.00;;;;;-143.90;100.00;76466.63;4823108;28;102701;-70
2024/01/23 09:25:20;;;;;;;;;38.67;35.67;;;;;-143.90;100.00;76472.81;4830936;28;102371;-70
2024/01/23 09:27:48;;;;;;;;;41.00;30.50;;;;;-143.90;100.00;76476.97;4828980;28;104202;-69
2024/01/23 09:30:19;;;;;;;;;37.50;30.00;;;;;-143.90;100.00;76470.75;4830337;28;104680;-69
2024/01/23 09:32:52;;;;;;;;;34.33;32.67;;;;;-143.90;100.00;76479.03;4818745;28;102014;-70
2024/01/23 09:35:19;;;;;;;;;39.25;34.50;;;;;-143.90;100.00;76489.38;4831758;28;102617;-70
2024/01/23 09:37:46;;;;;;;;;44.50;33.25;;;;;-143.90;100.00;76491.44;4830358;28;108627;-69
2024/01/23 09:40:15;;;;;;;;;38.00;33.75;;;;;-143.90;100.00;76485.22;4828181;28;102276;-69
2024/01/23 09:42:44;;;;;;;;;34.50;29.25;;;;;-143.90;100.00;76474.91;4815412;28;102269;-71
2024/01/23 09:45:17;;;;;;;;;31.50;27.00;;;;;-143.90;100.00;76474.91;4832408;28;105028;-70
2024/01/23 09:47:48;;;;;;;;;33.50;29.25;;;;;-143.90;100.00;76468.69;4831601;28;109223;-70
2024/01/23 09:50:17;;;;;;;;;40.67;32.33;;;;;-143.90;100.00;76474.91;4833371;28;102395;-70
2024/01/23 09:52:47;;;;;;;;;43.75;37.00;;;;;-143.90;100.00;76468.69;4820779;28;102417;-70
2024/01/23 09:55:14;;;;;;;;;28.50;25.25;;;;;-143.90;100.00;76462.47;4828186;28;103272;-69
2024/01/23 09:57:44;;;;;;;;;42.25;32.50;;;;;-143.90;100.00;76456.28;4828015;28;104262;-70
2024/01/23 10:00:11;;;;;;;;;36.50;33.50;;;;;-143.90;100.00;76466.63;4829471;28;102317;-69
2024/01/23 10:02:40;;;;;;;;;40.25;35.25;;;;;-143.90;100.00;76476.97;4820062;28;102150;-71
2024/01/23 10:05:17;;;;;;;;;33.25;28.50;;;;;-143.90;100.00;76476.97;4835067;28;102302;-70
2024/01/23 10:07:44;;;;;;;;;35.00;29.67;;;;;-143.90;100.00;76487.31;4825018;28;109417;-70
2024/01/23 10:10:14;;;;;;;;;39.00;34.00;;;;;-143.90;100.00;76485.22;4829028;28;102136;-70
2024/01/23 10:12:45;;;;;;;;;43.00;35.75;;;;;-143.90;100.00;76483.16;4817796;28;102364;-70
2024/01/23 10:15:16;;;;;;;;;38.50;31.75;;;;;-143.90;100.00;76485.22;4830111;28;102202;-71
2024/01/23 10:17:44;;;;;;;;;37.00;29.00;;;;;-143.90;100.00;76495.56;4830060;28;104185;-71
2024/01/23 10:20:13;;;;;;;;;45.50;33.50;;;;;-143.90;100.00;76507.97;4826392;28;103093;-70
2024/01/23 10:22:40;;;;;;;;;45.00;35.33;;;;;-143.90;100.00;76522.47;4820375;28;102141;-70
2024/01/23 10:25:10;;;;;;;;;37.67;34.33;;;;;-143.90;100.00;76524.53;4832453;28;102356;-71
2024/01/23 10:27:36;;;;;;;;;37.00;28.50;;;;;-143.90;100.00;76541.06;4834680;28;103278;-71
2024/01/23 10:30:03;;;;;;;;;42.33;35.33;;;;;-143.90;100.00;76541.06;4812201;28;104496;-70
2024/01/23 10:32:30;;;;;;;;;47.00;38.00;;;;;-143.90;100.00;76549.34;4818110;28;101924;-70
2024/01/23 10:34:57;;;;;;;;;54.67;41.00;;;;;-143.90;100.00;76565.88;4828465;28;102011;-69
2024/01/23 10:37:24;;;;;;;;;52.33;39.00;;;;;-143.90;100.00;76557.63;4829734;28;104155;-69
2024/01/23 10:39:52;;;;;;;;;51.67;39.67;;;;;-143.90;100.00;76567.97;4830243;28;102163;-71
2024/01/23 10:42:19;;;;;;;;;40.33;36.00;;;;;-143.90;100.00;76574.16;4830268;28;103023;-70
2024/01/23 10:44:48;;;;;;;;;47.00;39.67;;;;;-143.90;100.00;76563.81;4824307;28;102270;-70
2024/01/23 10:47:16;;;;;;;;;47.00;40.00;;;;;-143.90;100.00;76567.97;4827697;28;108924;-70